createdAt,value
2018-11-03T00:08:16.396Z,6.76
2018-11-03T00:16:37.421Z,6.71
2018-11-03T00:24:58.430Z,6.74
2018-11-03T00:33:19.480Z,6.71
2018-11-03T00:41:40.489Z,6.72
2018-11-03T00:50:01.543Z,6.71
2018-11-03T00:58:22.616Z,6.66
2018-11-03T01:06:43.640Z,6.69
2018-11-03T01:15:04.644Z,6.75
2018-11-03T01:23:25.687Z,6.75
2018-11-03T01:31:46.673Z,6.76
2018-11-03T01:40:07.691Z,6.85
2018-11-03T01:48:28.712Z,6.92
2018-11-03T01:56:49.787Z,6.99
2018-11-03T02:05:10.850Z,7.06
2018-11-03T02:13:31.880Z,6.98
2018-11-03T02:21:52.900Z,6.94
2018-11-03T02:30:13.926Z,6.91
2018-11-03T02:38:34.919Z,6.94
2018-11-03T02:46:55.951Z,6.92
2018-11-03T02:55:16.939Z,6.83
2018-11-03T03:03:38.992Z,6.82
2018-11-03T03:11:59.994Z,6.77
2018-11-03T03:20:21.008Z,6.68
2018-11-03T03:28:42.109Z,6.57
2018-11-03T03:37:03.033Z,6.50
2018-11-03T03:45:24.014Z,6.35
2018-11-03T03:53:45.120Z,6.28
2018-11-03T04:02:06.165Z,6.10
2018-11-03T04:10:27.208Z,6.01
2018-11-03T04:18:48.233Z,5.90
2018-11-03T04:27:09.238Z,5.76
2018-11-03T04:35:30.250Z,5.63
2018-11-03T04:43:51.276Z,5.51
2018-11-03T04:52:12.281Z,5.45
2018-11-03T05:00:33.294Z,5.35
2018-11-03T05:08:54.286Z,5.22
2018-11-03T05:17:15.312Z,5.28
2018-11-03T05:25:36.322Z,5.21
2018-11-03T05:33:57.325Z,5.24
2018-11-03T05:42:18.386Z,5.17
2018-11-03T05:50:39.464Z,5.18
2018-11-03T05:59:00.660Z,5.10
2018-11-03T06:07:21.953Z,5.04
2018-11-03T06:15:43.433Z,5.00
2018-11-03T06:24:04.738Z,4.98
2018-11-03T06:32:26.861Z,5.00
2018-11-03T06:40:47.947Z,5.13
2018-11-03T06:49:09.303Z,5.24
2018-11-03T06:57:30.554Z,5.31
2018-11-03T07:05:51.702Z,5.39
2018-11-03T07:14:12.949Z,5.67
2018-11-03T07:22:34.239Z,5.92
2018-11-03T07:30:55.241Z,6.15
2018-11-03T07:39:16.245Z,6.37
2018-11-03T07:47:37.273Z,6.69
2018-11-03T07:55:58.276Z,7.07
2018-11-03T08:04:19.302Z,7.18
2018-11-03T08:12:40.324Z,7.27
2018-11-03T08:21:01.325Z,7.43
2018-11-03T08:29:22.333Z,7.56
2018-11-03T08:37:43.336Z,7.72
2018-11-03T08:46:04.349Z,7.84
2018-11-03T08:54:25.349Z,8.04
2018-11-03T09:02:46.421Z,8.30
2018-11-03T09:11:07.433Z,8.51
2018-11-03T09:19:28.425Z,8.84
2018-11-03T09:27:49.450Z,9.23
2018-11-03T09:36:10.499Z,9.69
2018-11-03T09:44:31.508Z,10.00
2018-11-03T09:52:52.554Z,10.37
2018-11-03T10:01:13.668Z,10.65
2018-11-03T10:09:34.693Z,10.85
2018-11-03T10:17:55.690Z,11.15
2018-11-03T10:26:16.678Z,11.60
2018-11-03T10:34:37.698Z,11.82
2018-11-03T10:42:58.705Z,12.03
2018-11-03T10:51:19.732Z,12.35
2018-11-03T10:59:40.738Z,12.59
2018-11-03T11:08:01.732Z,12.93
2018-11-03T11:16:22.768Z,13.44
2018-11-03T11:24:44.015Z,13.91
2018-11-03T11:33:04.969Z,14.47
2018-11-03T11:41:25.996Z,14.81
2018-11-03T11:49:47.019Z,15.24
2018-11-03T11:58:08.015Z,16.07
2018-11-03T12:06:29.207Z,16.43
2018-11-03T12:14:50.245Z,17.09
2018-11-03T12:23:11.306Z,17.92
2018-11-03T12:31:32.321Z,19.46
2018-11-03T12:39:53.353Z,20.93
2018-11-03T12:48:14.501Z,21.71
2018-11-03T12:56:35.416Z,22.05
2018-11-03T13:04:56.468Z,22.67
2018-11-03T13:13:17.487Z,23.19
2018-11-03T13:21:38.464Z,23.56
2018-11-03T13:29:59.576Z,23.67
2018-11-03T13:38:20.586Z,23.29
2018-11-03T13:46:41.585Z,24.51
2018-11-03T13:55:02.678Z,24.95
2018-11-03T14:03:23.681Z,25.05
2018-11-03T14:11:44.694Z,24.85
2018-11-03T14:20:05.740Z,24.99
2018-11-03T14:28:27.056Z,24.55
2018-11-03T14:36:48.058Z,24.19
2018-11-03T14:45:09.116Z,23.47
2018-11-03T14:53:30.114Z,22.75
2018-11-03T15:01:51.125Z,21.18
2018-11-03T15:10:12.283Z,20.03
2018-11-03T15:18:33.630Z,19.02
2018-11-03T15:26:54.660Z,18.45
2018-11-03T15:35:15.665Z,17.21
2018-11-03T15:43:36.684Z,16.04
2018-11-03T15:51:57.712Z,14.85
2018-11-03T16:00:18.709Z,13.88
2018-11-03T16:08:40.077Z,13.18
2018-11-03T16:17:01.165Z,12.50
2018-11-03T16:25:22.209Z,11.99
2018-11-03T16:33:43.218Z,11.64
2018-11-03T16:42:04.301Z,11.32
2018-11-03T16:50:25.341Z,10.98
2018-11-03T16:58:46.455Z,10.71
2018-11-03T17:07:07.434Z,10.32
2018-11-03T17:15:28.454Z,10.00
2018-11-03T17:23:49.546Z,9.80
2018-11-03T17:32:10.527Z,9.60
2018-11-03T17:40:31.525Z,9.33
2018-11-03T17:48:52.639Z,9.12
2018-11-03T17:57:13.654Z,8.87
2018-11-03T18:05:34.652Z,8.71
2018-11-03T18:13:55.654Z,8.61
2018-11-03T18:22:16.944Z,8.51
2018-11-03T18:30:38.052Z,8.36
2018-11-03T18:38:59.021Z,8.22
2018-11-03T18:47:20.065Z,8.06
2018-11-03T18:55:41.114Z,8.00
2018-11-03T19:04:02.101Z,7.83
2018-11-03T19:12:23.641Z,7.77
2018-11-03T19:20:44.639Z,7.63
2018-11-03T19:29:05.614Z,7.52
2018-11-03T19:37:26.595Z,7.44
2018-11-03T19:45:47.708Z,7.27
2018-11-03T19:54:08.724Z,7.12
2018-11-03T20:02:29.791Z,7.01
2018-11-03T20:10:50.749Z,6.89
2018-11-03T20:19:11.856Z,6.72
2018-11-03T20:27:32.886Z,6.58
2018-11-03T20:35:53.976Z,6.50
2018-11-03T20:44:14.982Z,6.28
2018-11-03T20:52:36.034Z,6.21
2018-11-03T21:00:57.053Z,6.08
2018-11-03T21:09:18.063Z,5.96
2018-11-03T21:17:39.034Z,5.89
2018-11-03T21:26:00.040Z,5.80
2018-11-03T21:34:21.022Z,5.65
2018-11-03T21:42:42.022Z,5.52
2018-11-03T21:51:03.021Z,5.49
2018-11-03T21:59:24.086Z,5.48
2018-11-03T22:07:45.068Z,5.42
2018-11-03T22:16:06.085Z,5.39
2018-11-03T22:24:27.219Z,5.32
2018-11-03T22:32:48.237Z,5.24
2018-11-03T22:41:09.235Z,5.18
2018-11-03T22:49:30.272Z,5.26
2018-11-03T22:57:51.295Z,5.22
2018-11-03T23:06:12.296Z,5.16
2018-11-03T23:14:33.319Z,5.15
2018-11-03T23:22:54.352Z,5.13
2018-11-03T23:31:15.373Z,5.09
2018-11-03T23:39:36.453Z,5.05
2018-11-03T23:47:57.476Z,4.91
2018-11-03T23:56:18.458Z,4.93
